Time;durP1;ratioP1;P1;durP2;ratioP2;P2;SDS_P1;SDS_P2;PMS_P1;PMS_P2;Temp;Humidity;BMP_temperature;BMP_pressure;BME280_temperature;BME280_humidity;BME280_pressure;Samples;Min_cycle;Max_cycle;Signal;HPM_P1;HPM_P2
2024/01/11 00:02:17;;;;;;;36.90;24.00;;;-1.70;99.90;;;;;;5034266;28;20247;-73
2024/01/11 00:04:43;;;;;;;36.93;22.60;;;-2.00;99.90;;;;;;5034194;28;20676;-73
2024/01/11 00:07:09;;;;;;;32.40;22.77;;;-1.60;99.90;;;;;;5034060;28;20438;-73
2024/01/11 00:09:42;;;;;;;37.03;22.30;;;-1.60;99.90;;;;;;5034199;28;20391;-73
2024/01/11 00:12:09;;;;;;;37.33;22.20;;;-1.70;99.90;;;;;;5032729;28;20953;-73
2024/01/11 00:14:35;;;;;;;37.47;24.10;;;-1.70;99.90;;;;;;5033840;28;20567;-73
2024/01/11 00:17:01;;;;;;;33.13;23.70;;;-1.80;99.90;;;;;;5034561;28;21113;-73
2024/01/11 00:19:26;;;;;;;38.37;22.90;;;-1.80;99.90;;;;;;5033690;28;20555;-73
2024/01/11 00:21:52;;;;;;;35.60;21.83;;;-1.80;99.90;;;;;;5034870;28;20182;-73
2024/01/11 00:24:18;;;;;;;34.03;22.27;;;-2.00;99.90;;;;;;5034860;28;20179;-73
2024/01/11 00:26:44;;;;;;;37.10;23.50;;;-2.20;99.90;;;;;;5033750;28;20190;-73
2024/01/11 00:29:09;;;;;;;36.00;22.63;;;-1.80;99.90;;;;;;5034803;28;20812;-73
2024/01/11 00:31:35;;;;;;;39.97;22.83;;;-1.90;99.90;;;;;;5016048;28;20201;-73
2024/01/11 00:34:01;;;;;;;36.80;21.63;;;-1.90;99.90;;;;;;5034349;28;20200;-73
2024/01/11 00:36:28;;;;;;;35.90;23.53;;;-1.90;99.90;;;;;;5015424;28;20212;-73
2024/01/11 00:38:54;;;;;;;37.23;23.97;;;-1.90;99.90;;;;;;5034511;28;20506;-73
2024/01/11 00:41:19;;;;;;;35.47;21.90;;;-2.00;99.90;;;;;;5016678;28;21083;-73
2024/01/11 00:43:45;;;;;;;41.23;24.00;;;-2.00;99.90;;;;;;5033564;28;20415;-73
2024/01/11 00:46:11;;;;;;;34.73;23.03;;;-1.90;99.90;;;;;;5016230;28;20186;-73
2024/01/11 00:48:37;;;;;;;37.03;23.10;;;-1.80;99.90;;;;;;5033577;28;20537;-74
2024/01/11 00:51:05;;;;;;;42.50;23.50;;;-1.90;99.90;;;;;;5033843;28;20186;-73
2024/01/11 00:53:30;;;;;;;36.40;22.80;;;-1.80;99.90;;;;;;5032252;28;20434;-73
2024/01/11 00:55:57;;;;;;;38.37;22.40;;;-1.90;99.90;;;;;;5033669;28;20465;-73
2024/01/11 00:58:23;;;;;;;35.23;21.17;;;-2.00;99.90;;;;;;5033382;28;20624;-73
2024/01/11 01:00:49;;;;;;;39.87;21.50;;;-1.90;99.90;;;;;;5034196;28;20472;-73
2024/01/11 01:03:16;;;;;;;42.23;24.20;;;-2.00;99.90;;;;;;5033375;28;20189;-73
2024/01/11 01:05:42;;;;;;;40.07;23.30;;;-2.10;99.90;;;;;;5000652;28;20422;-74
2024/01/11 01:08:07;;;;;;;36.77;22.60;;;-2.10;99.90;;;;;;5034447;28;20436;-73
2024/01/11 01:10:33;;;;;;;36.67;22.87;;;-2.10;99.90;;;;;;5032954;28;20999;-73
2024/01/11 01:12:59;;;;;;;37.27;22.00;;;-2.10;99.90;;;;;;5033931;28;20247;-73
2024/01/11 01:15:24;;;;;;;37.20;20.60;;;-2.10;99.90;;;;;;5031711;28;20637;-73
2024/01/11 01:17:50;;;;;;;40.67;22.97;;;-2.10;99.90;;;;;;5033128;28;20208;-73
2024/01/11 01:20:16;;;;;;;35.77;21.30;;;-2.10;99.90;;;;;;5032875;28;20214;-73
2024/01/11 01:22:41;;;;;;;41.03;22.70;;;-2.10;99.90;;;;;;5033312;28;20189;-73
2024/01/11 01:25:07;;;;;;;34.93;22.23;;;-2.10;99.90;;;;;;5033389;28;20533;-73
2024/01/11 01:27:33;;;;;;;37.50;21.97;;;-2.20;99.90;;;;;;5015485;28;20177;-73
2024/01/11 01:29:59;;;;;;;39.10;22.70;;;-2.10;99.90;;;;;;5034174;28;20575;-73
2024/01/11 01:32:24;;;;;;;40.60;23.27;;;-2.30;99.90;;;;;;5032876;28;20530;-73
2024/01/11 01:34:50;;;;;;;39.00;21.93;;;-2.20;99.90;;;;;;5033720;28;20479;-73
2024/01/11 01:37:16;;;;;;;37.30;23.20;;;-2.60;99.90;;;;;;5032289;28;20189;-74
2024/01/11 01:39:42;;;;;;;34.13;20.40;;;-2.20;99.90;;;;;;5015181;28;20230;-73
2024/01/11 01:42:07;;;;;;;40.70;23.83;;;-2.20;99.90;;;;;;5032812;28;20234;-73
2024/01/11 01:44:34;;;;;;;40.77;23.73;;;-2.10;99.90;;;;;;5015017;28;20857;-73
2024/01/11 01:47:00;;;;;;;41.60;23.40;;;-2.30;99.90;;;;;;5033109;28;20189;-73
2024/01/11 01:49:26;;;;;;;43.33;24.00;;;-2.20;99.90;;;;;;5032052;28;20418;-73
2024/01/11 01:51:53;;;;;;;37.90;22.00;;;-2.20;99.90;;;;;;5033605;28;20801;-73
2024/01/11 01:54:20;;;;;;;37.87;22.33;;;-2.60;99.90;;;;;;5032838;28;20565;-73
2024/01/11 01:56:47;;;;;;;37.83;23.97;;;-2.40;99.90;;;;;;5016269;28;20428;-73
2024/01/11 01:59:14;;;;;;;39.37;22.80;;;-2.40;99.90;;;;;;5015305;28;20468;-73
2024/01/11 02:01:40;;;;;;;33.90;21.50;;;-2.50;99.90;;;;;;5015594;28;20399;-73
2024/01/11 02:04:06;;;;;;;43.07;24.60;;;-2.40;99.90;;;;;;5032074;28;20428;-73
2024/01/11 02:06:34;;;;;;;36.10;23.77;;;-2.30;99.90;;;;;;5015101;28;20571;-73
2024/01/11 02:09:03;;;;;;;36.30;21.43;;;-2.30;99.90;;;;;;5033804;28;20409;-73
2024/01/11 02:11:29;;;;;;;33.13;20.87;;;-2.30;99.90;;;;;;5032909;28;20523;-73
2024/01/11 02:13:55;;;;;;;37.53;21.60;;;-2.50;99.90;;;;;;5033090;28;20524;-73
2024/01/11 02:16:21;;;;;;;33.87;22.10;;;-2.60;99.90;;;;;;5032493;28;20472;-73
2024/01/11 02:18:46;;;;;;;35.73;22.17;;;-2.50;99.90;;;;;;5032515;28;20498;-73
2024/01/11 02:21:15;;;;;;;32.97;22.07;;;-2.60;99.90;;;;;;5032778;28;20873;-73
2024/01/11 02:23:52;;;;;;;41.40;24.33;;;-2.60;99.90;;;;;;5032957;28;20189;-73
2024/01/11 02:26:17;;;;;;;39.67;24.27;;;-2.60;99.90;;;;;;5013955;28;20399;-73
2024/01/11 02:28:44;;;;;;;39.30;23.87;;;-2.60;99.90;;;;;;5003107;28;20514;-73
2024/01/11 02:31:12;;;;;;;38.10;23.40;;;-2.50;99.90;;;;;;5036545;28;20239;-73
2024/01/11 02:33:38;;;;;;;38.13;22.50;;;-2.60;99.90;;;;;;5036346;28;20407;-73
2024/01/11 02:36:05;;;;;;;34.40;23.47;;;-2.70;99.90;;;;;;5018731;28;20404;-73
2024/01/11 02:38:32;;;;;;;41.43;24.47;;;-2.50;99.90;;;;;;5036546;28;20471;-73
2024/01/11 02:41:00;;;;;;;38.60;24.03;;;-2.60;99.90;;;;;;5036353;28;20461;-73
2024/01/11 02:43:25;;;;;;;43.17;24.20;;;-2.70;99.90;;;;;;5018193;28;20903;-73
2024/01/11 02:45:55;;;;;;;38.63;23.80;;;-2.50;99.90;;;;;;5037240;28;20440;-73
2024/01/11 02:48:21;;;;;;;38.30;23.20;;;-2.50;99.90;;;;;;5036591;28;20194;-73
2024/01/11 02:50:48;;;;;;;45.40;23.73;;;-2.50;99.90;;;;;;5036425;28;20953;-73
2024/01/11 02:53:14;;;;;;;40.93;24.27;;;-2.50;99.90;;;;;;5036382;28;20400;-74
2024/01/11 02:55:40;;;;;;;41.73;23.40;;;-2.60;99.90;;;;;;5018601;28;20399;-73
2024/01/11 02:58:05;;;;;;;43.23;23.37;;;-2.50;99.90;;;;;;5036679;28;20179;-73
2024/01/11 03:00:31;;;;;;;40.37;24.97;;;-2.50;99.90;;;;;;5036495;28;20182;-73
2024/01/11 03:02:57;;;;;;;39.40;24.83;;;-2.70;99.90;;;;;;5035792;28;20181;-73
2024/01/11 03:05:22;;;;;;;38.77;24.10;;;-2.70;99.90;;;;;;5036012;28;20206;-73
2024/01/11 03:07:48;;;;;;;39.33;21.87;;;-2.50;99.90;;;;;;5036763;28;20288;-73
2024/01/11 03:10:14;;;;;;;40.63;24.30;;;-2.70;99.90;;;;;;5035838;28;20188;-73
2024/01/11 03:12:40;;;;;;;32.50;21.23;;;-2.70;99.90;;;;;;5018778;28;20194;-73
2024/01/11 03:15:06;;;;;;;38.47;23.13;;;-2.70;99.90;;;;;;5018057;28;20641;-73
2024/01/11 03:17:32;;;;;;;43.60;24.47;;;-2.80;99.90;;;;;;5036237;28;20407;-73
2024/01/11 03:19:59;;;;;;;38.07;23.00;;;-2.70;99.90;;;;;;5035516;28;20475;-73
2024/01/11 03:22:25;;;;;;;37.20;23.53;;;-2.70;99.90;;;;;;5036070;28;20428;-73
2024/01/11 03:24:51;;;;;;;41.67;25.30;;;-2.80;99.90;;;;;;5040058;28;20419;-74
2024/01/11 03:27:17;;;;;;;37.80;24.63;;;-2.80;99.90;;;;;;5037871;28;20414;-73
2024/01/11 03:29:43;;;;;;;42.27;24.67;;;-2.80;99.90;;;;;;5021093;28;20194;-74
2024/01/11 03:32:08;;;;;;;40.70;22.30;;;-2.80;99.90;;;;;;5035914;28;20236;-73
2024/01/11 03:34:34;;;;;;;49.13;26.13;;;-2.70;99.90;;;;;;5036116;28;20182;-73
2024/01/11 03:37:00;;;;;;;45.70;24.07;;;-2.80;99.90;;;;;;5036710;28;20656;-73
2024/01/11 03:39:25;;;;;;;43.20;24.60;;;-2.80;99.90;;;;;;5034483;28;20222;-73
2024/01/11 03:41:51;;;;;;;40.70;23.80;;;-2.90;99.90;;;;;;5018328;28;20292;-73
2024/01/11 03:44:17;;;;;;;43.03;24.27;;;-3.00;99.90;;;;;;5035023;28;20402;-73
2024/01/11 03:46:42;;;;;;;39.40;22.93;;;-2.80;99.90;;;;;;5035069;28;20189;-73
2024/01/11 03:49:08;;;;;;;43.50;25.77;;;-3.00;99.90;;;;;;5035212;28;20647;-73
2024/01/11 03:51:34;;;;;;;37.17;23.53;;;-2.90;99.90;;;;;;5035270;28;20222;-73
2024/01/11 03:54:00;;;;;;;37.00;23.57;;;-2.80;99.90;;;;;;5035628;28;20388;-73
2024/01/11 03:56:26;;;;;;;42.03;23.73;;;-2.90;99.90;;;;;;5034621;28;21179;-73
2024/01/11 03:58:51;;;;;;;44.83;25.20;;;-2.90;99.90;;;;;;5036289;28;20663;-73
2024/01/11 04:01:17;;;;;;;46.30;25.60;;;-2.90;99.90;;;;;;5016872;28;20721;-73
2024/01/11 04:03:43;;;;;;;42.80;23.50;;;-3.00;99.90;;;;;;5036120;28;20186;-73
2024/01/11 04:06:08;;;;;;;34.27;22.53;;;-2.90;99.90;;;;;;5034557;28;20185;-73
2024/01/11 04:08:34;;;;;;;38.77;24.87;;;-3.00;99.90;;;;;;5035306;28;20249;-73
2024/01/11 04:11:03;;;;;;;43.23;25.67;;;-3.00;99.90;;;;;;5035125;28;20856;-73
2024/01/11 04:13:29;;;;;;;40.77;24.27;;;-3.00;99.90;;;;;;5034084;28;20655;-73
2024/01/11 04:15:55;;;;;;;46.13;26.20;;;-2.90;99.90;;;;;;5035023;28;20420;-73
2024/01/11 04:18:20;;;;;;;40.87;22.80;;;-2.80;99.90;;;;;;5034605;28;20210;-73
2024/01/11 04:20:46;;;;;;;39.73;27.07;;;-2.90;99.90;;;;;;5035022;28;20190;-73
2024/01/11 04:23:12;;;;;;;45.30;24.93;;;-2.90;99.90;;;;;;5034695;28;20185;-73
2024/01/11 04:25:37;;;;;;;42.40;24.57;;;-3.00;99.90;;;;;;5033971;28;20193;-73
2024/01/11 04:28:03;;;;;;;41.37;26.13;;;-3.00;99.90;;;;;;5035307;28;20182;-73
2024/01/11 04:30:29;;;;;;;38.10;24.23;;;-3.00;99.90;;;;;;5033367;28;20209;-73
2024/01/11 04:32:55;;;;;;;45.90;24.80;;;-3.10;99.90;;;;;;5034871;28;20422;-73
2024/01/11 04:35:20;;;;;;;45.27;24.20;;;-3.10;99.90;;;;;;5034176;28;20545;-73
2024/01/11 04:37:46;;;;;;;45.03;24.63;;;-3.10;99.90;;;;;;5034863;28;20284;-73
2024/01/11 04:40:11;;;;;;;46.27;25.90;;;-2.90;99.90;;;;;;5034118;28;20221;-73
2024/01/11 04:42:37;;;;;;;45.00;25.00;;;-3.10;99.90;;;;;;5034574;28;20310;-73
2024/01/11 04:45:04;;;;;;;38.13;23.47;;;-3.00;99.90;;;;;;5034902;28;20183;-73
2024/01/11 04:47:30;;;;;;;41.07;23.40;;;-3.00;99.90;;;;;;5034202;28;20292;-73
2024/01/11 04:49:56;;;;;;;40.07;22.63;;;-3.10;99.90;;;;;;5034093;28;20508;-73
2024/01/11 04:52:21;;;;;;;43.30;25.40;;;-3.00;99.90;;;;;;5033280;28;20645;-73
2024/01/11 04:54:47;;;;;;;44.70;25.93;;;-2.90;99.90;;;;;;5034306;28;20268;-73
2024/01/11 04:57:13;;;;;;;43.37;25.20;;;-3.00;99.90;;;;;;5032580;28;20182;-73
2024/01/11 04:59:38;;;;;;;39.73;23.13;;;-3.10;99.90;;;;;;5034529;28;20221;-73
2024/01/11 05:02:04;;;;;;;44.47;24.10;;;-2.90;99.90;;;;;;5034186;28;20314;-73
2024/01/11 05:04:30;;;;;;;37.07;23.90;;;-3.00;99.90;;;;;;5033691;28;20272;-73
2024/01/11 05:06:56;;;;;;;37.13;24.00;;;-3.00;99.90;;;;;;5034259;28;20257;-73
2024/01/11 05:09:21;;;;;;;42.07;24.10;;;-3.10;99.90;;;;;;5033659;28;20515;-73
2024/01/11 05:11:47;;;;;;;42.10;24.80;;;-3.20;99.90;;;;;;5016444;28;20929;-73
2024/01/11 05:14:13;;;;;;;39.63;24.10;;;-3.30;99.90;;;;;;5016243;28;20182;-73
2024/01/11 05:16:39;;;;;;;38.73;23.20;;;-3.20;99.90;;;;;;5033004;28;20217;-73
2024/01/11 05:19:04;;;;;;;40.83;23.57;;;-3.20;99.90;;;;;;5016322;28;20210;-73
2024/01/11 05:21:30;;;;;;;43.90;23.60;;;-3.40;99.90;;;;;;5034017;28;20494;-73
2024/01/11 05:23:56;;;;;;;41.63;24.50;;;-3.30;99.90;;;;;;5034092;28;20192;-73
2024/01/11 05:26:22;;;;;;;42.40;24.47;;;-3.20;99.90;;;;;;5033353;28;20352;-73
2024/01/11 05:28:48;;;;;;;45.57;24.87;;;-3.30;99.90;;;;;;5016192;28;20189;-73
2024/01/11 05:31:15;;;;;;;41.43;24.07;;;-3.30;99.90;;;;;;5031961;28;20441;-73
2024/01/11 05:33:41;;;;;;;43.50;25.10;;;-3.10;99.90;;;;;;5033928;28;20530;-73
2024/01/11 05:36:07;;;;;;;39.77;23.77;;;-3.30;99.90;;;;;;5032691;28;20423;-73
2024/01/11 05:38:34;;;;;;;37.17;24.90;;;-3.20;99.90;;;;;;5034155;28;20941;-73
2024/01/11 05:41:00;;;;;;;41.70;25.63;;;-3.20;99.90;;;;;;5033069;28;20693;-73
2024/01/11 05:43:25;;;;;;;39.90;23.87;;;-3.30;99.90;;;;;;5033757;28;20407;-73
2024/01/11 05:45:51;;;;;;;47.10;25.80;;;-3.50;99.90;;;;;;5033981;28;20181;-73
2024/01/11 05:48:17;;;;;;;39.23;23.87;;;-3.50;99.90;;;;;;5032637;28;20189;-73
2024/01/11 05:50:43;;;;;;;42.47;24.67;;;-3.40;99.90;;;;;;5033925;28;20426;-73
2024/01/11 05:53:11;;;;;;;44.37;25.40;;;-3.40;99.90;;;;;;5032053;28;20399;-73
2024/01/11 05:55:37;;;;;;;44.50;25.50;;;-3.60;99.90;;;;;;5033409;28;20436;-73
2024/01/11 05:58:03;;;;;;;46.77;25.33;;;-3.40;99.90;;;;;;5029637;28;20416;-73
2024/01/11 06:00:29;;;;;;;41.57;24.67;;;-3.30;99.90;;;;;;5031371;28;20422;-73
2024/01/11 06:02:55;;;;;;;42.70;22.70;;;-3.50;99.90;;;;;;5037000;28;21133;-73
2024/01/11 06:05:20;;;;;;;40.40;24.37;;;-3.50;99.90;;;;;;5021894;28;20406;-73
2024/01/11 06:07:47;;;;;;;41.63;25.93;;;-3.50;99.90;;;;;;5040042;28;20755;-73
2024/01/11 06:10:14;;;;;;;41.27;22.63;;;-3.40;99.90;;;;;;5039048;28;20643;-73
2024/01/11 06:12:40;;;;;;;42.33;23.17;;;-3.30;99.90;;;;;;5038280;28;20422;-73
2024/01/11 06:15:06;;;;;;;42.10;23.93;;;-3.40;99.90;;;;;;5021203;28;20411;-73
2024/01/11 06:17:32;;;;;;;52.20;26.17;;;-3.30;99.90;;;;;;5022373;28;20436;-73
2024/01/11 06:19:57;;;;;;;37.77;23.77;;;-3.30;99.90;;;;;;5039319;28;20442;-73
2024/01/11 06:22:23;;;;;;;48.37;26.87;;;-3.20;99.90;;;;;;5038581;28;20182;-73
2024/01/11 06:24:49;;;;;;;54.47;29.90;;;-3.10;99.90;;;;;;5038368;28;20189;-73
2024/01/11 06:27:14;;;;;;;61.97;31.93;;;-3.30;99.90;;;;;;5039130;28;20592;-73
2024/01/11 06:29:40;;;;;;;57.53;31.73;;;-3.20;99.90;;;;;;5039725;28;20181;-73
2024/01/11 06:32:07;;;;;;;62.00;31.47;;;-3.40;99.90;;;;;;5020027;28;20549;-73
2024/01/11 06:34:35;;;;;;;50.13;26.87;;;-3.30;99.90;;;;;;5040221;28;20186;-73
2024/01/11 06:37:02;;;;;;;48.47;26.20;;;-3.40;99.90;;;;;;5038687;28;20811;-73
2024/01/11 06:39:29;;;;;;;47.50;25.63;;;-3.40;99.90;;;;;;5039791;28;20443;-73
2024/01/11 06:41:55;;;;;;;44.27;24.03;;;-3.30;99.90;;;;;;5039084;28;20182;-73
2024/01/11 06:44:21;;;;;;;42.87;25.20;;;-3.20;99.90;;;;;;5036582;28;20402;-73
2024/01/11 06:46:47;;;;;;;46.17;25.60;;;-3.40;99.90;;;;;;5037654;28;20448;-73
2024/01/11 06:49:12;;;;;;;39.03;23.90;;;-3.50;99.90;;;;;;5039147;28;21282;-73
2024/01/11 06:51:39;;;;;;;39.40;24.00;;;-3.50;99.90;;;;;;5021691;28;20276;-73
2024/01/11 06:54:04;;;;;;;39.47;24.50;;;-3.60;99.90;;;;;;5038055;28;20633;-73
2024/01/11 06:56:30;;;;;;;42.10;23.47;;;-3.30;99.90;;;;;;5019093;28;20435;-73
2024/01/11 06:58:56;;;;;;;45.80;25.87;;;-3.60;99.90;;;;;;5004720;28;20216;-73
2024/01/11 07:01:22;;;;;;;39.33;25.00;;;-3.40;99.90;;;;;;5037467;28;20189;-73
2024/01/11 07:03:49;;;;;;;44.90;24.97;;;-3.20;99.90;;;;;;5039843;28;20178;-73
2024/01/11 07:06:15;;;;;;;48.77;27.40;;;-3.20;99.90;;;;;;5034964;28;20542;-73
2024/01/11 07:08:41;;;;;;;42.40;23.53;;;-3.20;99.90;;;;;;5037239;28;20530;-73
2024/01/11 07:11:07;;;;;;;42.23;24.00;;;-3.20;99.90;;;;;;5036980;28;20428;-73
2024/01/11 07:13:33;;;;;;;41.67;25.83;;;-3.20;99.90;;;;;;5034789;28;20192;-73
2024/01/11 07:15:59;;;;;;;43.27;26.50;;;-3.30;99.90;;;;;;5033609;28;21176;-73
2024/01/11 07:18:25;;;;;;;38.07;23.13;;;-3.20;99.90;;;;;;5031982;28;21135;-73
2024/01/11 07:20:52;;;;;;;45.07;24.50;;;-3.30;99.90;;;;;;5014956;28;20501;-73
2024/01/11 07:23:17;;;;;;;37.57;23.60;;;-3.40;99.90;;;;;;5034856;28;21056;-73
2024/01/11 07:25:43;;;;;;;45.07;24.30;;;-3.50;99.90;;;;;;5035522;28;20527;-73
2024/01/11 07:28:09;;;;;;;41.33;24.43;;;-3.30;99.90;;;;;;5034419;28;20711;-73
2024/01/11 07:30:35;;;;;;;42.30;25.53;;;-3.40;99.90;;;;;;5002001;28;20181;-73
2024/01/11 07:33:01;;;;;;;38.57;24.33;;;-3.30;99.90;;;;;;5034676;28;20186;-73
2024/01/11 07:35:27;;;;;;;40.40;23.20;;;-3.40;99.90;;;;;;5016852;28;20942;-73
2024/01/11 07:37:53;;;;;;;44.27;23.33;;;-3.20;99.90;;;;;;5034636;28;20440;-73
2024/01/11 07:40:18;;;;;;;37.60;22.80;;;-3.30;99.90;;;;;;5016623;28;20232;-73
2024/01/11 07:42:45;;;;;;;39.30;23.83;;;-3.20;99.90;;;;;;5035426;28;20404;-73
2024/01/11 07:45:11;;;;;;;42.33;25.27;;;-3.20;99.90;;;;;;5033628;28;20186;-73
2024/01/11 07:47:37;;;;;;;40.80;23.83;;;-3.20;99.90;;;;;;5035634;28;20551;-73
2024/01/11 07:50:06;;;;;;;45.40;25.57;;;-3.30;99.90;;;;;;5035350;28;20194;-73
2024/01/11 07:52:32;;;;;;;37.03;23.80;;;-3.30;99.90;;;;;;5034544;28;20265;-73
2024/01/11 07:55:06;;;;;;;39.57;24.90;;;-3.20;99.90;;;;;;5034436;28;20404;-73
2024/01/11 07:57:32;;;;;;;42.90;24.10;;;-3.20;99.90;;;;;;5033987;28;20415;-73
2024/01/11 07:59:59;;;;;;;41.07;25.87;;;-3.30;99.90;;;;;;5033556;28;20468;-73
2024/01/11 08:02:25;;;;;;;40.37;24.93;;;-3.40;99.90;;;;;;5034414;28;20429;-73
2024/01/11 08:04:50;;;;;;;44.27;25.47;;;-3.10;99.90;;;;;;5017883;28;20495;-73
2024/01/11 08:07:16;;;;;;;37.87;23.00;;;-3.10;99.90;;;;;;5015502;28;20823;-73
2024/01/11 08:09:45;;;;;;;41.23;24.33;;;-3.20;99.90;;;;;;5034021;28;20213;-73
2024/01/11 08:12:14;;;;;;;40.93;24.50;;;-3.20;99.90;;;;;;5032107;28;20186;-73
2024/01/11 08:14:41;;;;;;;40.77;23.80;;;-3.30;99.90;;;;;;5034401;28;20428;-73
2024/01/11 08:17:08;;;;;;;39.10;24.03;;;-3.10;99.90;;;;;;5032736;28;20423;-73
2024/01/11 08:19:34;;;;;;;41.67;26.37;;;-3.10;99.90;;;;;;5034991;28;21042;-73
2024/01/11 08:22:00;;;;;;;42.77;23.77;;;-3.00;99.90;;;;;;5033665;28;20959;-73
2024/01/11 08:24:26;;;;;;;40.73;24.40;;;-3.20;99.90;;;;;;5033558;28;20425;-73
2024/01/11 08:26:52;;;;;;;41.57;23.20;;;-2.90;99.90;;;;;;5034449;28;20217;-73
2024/01/11 08:29:20;;;;;;;39.13;23.20;;;-3.00;99.90;;;;;;5034345;28;20182;-73
2024/01/11 08:31:46;;;;;;;43.80;25.30;;;-2.90;99.90;;;;;;5033969;28;20429;-73
2024/01/11 08:34:12;;;;;;;40.87;23.90;;;-3.10;99.90;;;;;;5033857;28;20816;-73
2024/01/11 08:36:38;;;;;;;37.20;22.57;;;-2.70;99.90;;;;;;5034568;28;20403;-73
2024/01/11 08:39:05;;;;;;;37.77;23.70;;;-2.70;99.90;;;;;;5033953;28;20439;-73
2024/01/11 08:41:32;;;;;;;37.23;24.13;;;-2.60;99.90;;;;;;5034214;28;20486;-73
2024/01/11 08:43:58;;;;;;;38.83;24.87;;;-2.50;99.90;;;;;;5032545;28;20451;-73
2024/01/11 08:46:27;;;;;;;41.17;25.27;;;-2.40;99.90;;;;;;5016136;28;20831;-73
2024/01/11 08:48:55;;;;;;;37.20;22.80;;;-2.30;99.90;;;;;;5033450;28;20410;-75
2024/01/11 08:51:21;;;;;;;45.30;27.20;;;-2.30;99.90;;;;;;5018689;28;21221;-71
2024/01/11 08:53:47;;;;;;;36.63;23.50;;;-1.90;99.90;;;;;;5039095;28;20414;-70
2024/01/11 08:56:13;;;;;;;40.90;24.07;;;-2.00;99.90;;;;;;5040257;28;20406;-73
2024/01/11 08:58:42;;;;;;;43.17;25.97;;;-1.80;99.90;;;;;;5016582;28;20287;-72
2024/01/11 09:01:08;;;;;;;39.23;26.60;;;-1.70;99.90;;;;;;5033255;28;20432;-75
2024/01/11 09:03:35;;;;;;;39.43;25.77;;;-1.50;99.90;;;;;;5035112;28;21060;-73
2024/01/11 09:06:02;;;;;;;43.40;24.77;;;-1.60;99.90;;;;;;5032576;28;20711;-73
2024/01/11 09:08:27;;;;;;;42.30;26.97;;;-1.50;99.90;;;;;;5033874;28;20468;-72
2024/01/11 09:10:53;;;;;;;43.57;27.10;;;-1.40;99.90;;;;;;5033254;28;20404;-72
2024/01/11 09:13:19;;;;;;;40.30;27.17;;;-1.20;99.90;;;;;;5016148;28;20209;-73
2024/01/11 09:15:45;;;;;;;49.47;29.57;;;-1.20;99.90;;;;;;5033493;28;20202;-72
2024/01/11 09:18:11;;;;;;;51.37;27.17;;;-1.00;99.90;;;;;;5033696;28;20407;-72
2024/01/11 09:20:37;;;;;;;47.50;28.70;;;-0.90;99.90;;;;;;5032904;28;20274;-74
2024/01/11 09:23:03;;;;;;;44.73;29.40;;;-0.80;99.90;;;;;;5032978;28;20194;-71
2024/01/11 09:25:32;;;;;;;44.00;27.57;;;-0.70;99.90;;;;;;5033497;28;20511;-73
2024/01/11 09:27:58;;;;;;;45.10;28.70;;;-0.60;99.90;;;;;;5032287;28;20406;-74
2024/01/11 09:30:24;;;;;;;45.63;27.60;;;-0.50;99.90;;;;;;5033143;28;20450;-72
2024/01/11 09:32:49;;;;;;;45.73;28.30;;;-0.40;99.90;;;;;;5032867;28;21176;-73
2024/01/11 09:35:15;;;;;;;42.93;28.50;;;-0.20;99.90;;;;;;5015113;28;20193;-73
2024/01/11 09:37:42;;;;;;;51.60;29.70;;;-0.10;99.90;;;;;;5032509;28;20187;-71
2024/01/11 09:40:10;;;;;;;44.00;28.30;;;0.00;99.90;;;;;;5032466;28;20532;-71
2024/01/11 09:42:37;;;;;;;45.03;28.00;;;0.10;99.90;;;;;;5033240;28;20476;-73
2024/01/11 09:45:10;;;;;;;42.57;28.30;;;0.30;99.90;;;;;;5031982;28;20820;-73
2024/01/11 09:47:36;;;;;;;43.97;27.93;;;0.40;99.90;;;;;;5033357;28;20444;-73
2024/01/11 09:50:07;;;;;;;43.07;27.50;;;0.60;99.90;;;;;;5031971;28;21046;-72
2024/01/11 09:52:33;;;;;;;44.23;27.10;;;0.80;99.90;;;;;;5032602;28;20465;-74
2024/01/11 09:55:02;;;;;;;41.37;27.67;;;1.00;99.90;;;;;;5032187;28;20432;-72
2024/01/11 09:57:35;;;;;;;46.93;28.50;;;1.10;99.90;;;;;;4998928;28;20758;-73
2024/01/11 10:00:07;;;;;;;40.53;27.07;;;1.20;99.90;;;;;;5032389;28;20460;-71
2024/01/11 10:02:33;;;;;;;45.80;26.83;;;1.40;99.90;;;;;;5032934;28;20429;-74
2024/01/11 10:04:59;;;;;;;46.97;30.97;;;1.60;99.90;;;;;;5014350;28;20509;-72
2024/01/11 10:07:25;;;;;;;43.00;29.83;;;1.70;99.90;;;;;;5032787;28;20209;-72
2024/01/11 10:09:50;;;;;;;52.40;30.87;;;1.90;99.90;;;;;;5032496;28;20424;-71
2024/01/11 10:12:23;;;;;;;48.10;32.30;;;2.10;99.90;;;;;;5032681;28;20982;-71
2024/01/11 10:14:48;;;;;;;51.83;31.20;;;2.20;99.90;;;;;;5031677;28;20217;-72
2024/01/11 10:17:14;;;;;;;48.03;30.00;;;2.40;99.90;;;;;;5032390;28;20489;-72
2024/01/11 10:19:40;;;;;;;48.33;31.77;;;2.60;99.90;;;;;;5032773;28;20472;-73
2024/01/11 10:22:06;;;;;;;46.33;31.40;;;2.80;99.90;;;;;;5031966;28;20195;-72
2024/01/11 10:24:32;;;;;;;45.10;31.40;;;3.10;99.90;;;;;;5032798;28;20183;-71
2024/01/11 10:27:01;;;;;;;46.83;31.90;;;3.20;99.90;;;;;;5031735;28;20428;-72
2024/01/11 10:29:36;;;;;;;43.00;30.60;;;3.40;99.90;;;;;;5032359;28;21329;-72
2024/01/11 10:32:03;;;;;;;43.73;32.30;;;3.70;99.70;;;;;;5031938;28;20550;-73
2024/01/11 10:34:29;;;;;;;46.00;32.23;;;4.00;98.90;;;;;;5032306;28;20521;-71
2024/01/11 10:36:56;;;;;;;48.03;32.63;;;4.00;97.50;;;;;;5032145;28;20471;-72
2024/01/11 10:39:25;;;;;;;47.43;32.83;;;3.80;97.00;;;;;;5033192;28;20220;-71
2024/01/11 10:41:56;;;;;;;44.13;31.67;;;3.50;97.00;;;;;;5032302;28;20791;-73
2024/01/11 10:44:22;;;;;;;45.33;31.10;;;3.20;97.20;;;;;;5032430;28;20433;-73
2024/01/11 10:46:53;;;;;;;46.87;31.80;;;3.00;97.30;;;;;;5031662;28;20432;-72
2024/01/11 10:49:19;;;;;;;45.97;31.17;;;2.80;97.60;;;;;;5033849;28;20420;-71
2024/01/11 10:51:53;;;;;;;44.67;30.67;;;2.60;98.20;;;;;;5035462;28;20429;-72
2024/01/11 10:54:21;;;;;;;45.77;29.53;;;2.60;98.50;;;;;;5035940;28;20566;-70
2024/01/11 10:56:48;;;;;;;47.23;31.00;;;2.70;99.00;;;;;;5034475;28;20463;-72
2024/01/11 10:59:14;;;;;;;44.13;29.90;;;2.90;98.00;;;;;;5036306;28;20472;-72
2024/01/11 11:01:41;;;;;;;45.87;30.30;;;3.00;97.70;;;;;;5035409;28;20428;-74
2024/01/11 11:04:07;;;;;;;47.93;30.80;;;3.00;97.50;;;;;;5017880;28;20429;-70
2024/01/11 11:06:35;;;;;;;42.67;29.03;;;2.90;97.30;;;;;;5035496;28;20436;-71
2024/01/11 11:09:03;;;;;;;40.33;27.30;;;2.70;97.40;;;;;;5017591;28;20437;-74
2024/01/11 11:11:30;;;;;;;44.43;28.67;;;2.60;97.40;;;;;;5035047;28;20515;-74
2024/01/11 11:14:00;;;;;;;42.10;27.63;;;2.50;97.70;;;;;;5035164;28;20507;-74
2024/01/11 11:16:26;;;;;;;42.73;27.93;;;2.50;98.10;;;;;;5035637;28;20452;-73
2024/01/11 11:18:56;;;;;;;43.03;27.30;;;2.40;97.30;;;;;;5018293;28;20472;-73
2024/01/11 11:21:24;;;;;;;41.40;27.10;;;2.20;97.70;;;;;;5035664;28;20534;-73
2024/01/11 11:23:50;;;;;;;37.87;25.83;;;2.00;98.30;;;;;;5035277;28;20440;-72
2024/01/11 11:26:17;;;;;;;40.97;27.27;;;1.90;98.20;;;;;;5035349;28;20471;-72
2024/01/11 11:28:43;;;;;;;40.07;26.47;;;1.80;98.10;;;;;;5034703;28;20249;-73
2024/01/11 11:31:11;;;;;;;38.10;25.00;;;1.80;98.50;;;;;;5017507;28;20431;-70
2024/01/11 11:33:37;;;;;;;39.33;24.67;;;1.70;98.50;;;;;;5035372;28;20437;-73
2024/01/11 11:36:03;;;;;;;40.00;27.87;;;1.70;99.00;;;;;;5035112;28;20491;-72
2024/01/11 11:38:30;;;;;;;35.70;24.57;;;1.80;99.20;;;;;;5035328;28;20223;-72
2024/01/11 11:40:58;;;;;;;35.60;25.30;;;2.00;98.60;;;;;;5016328;28;20538;-72
2024/01/11 11:43:26;;;;;;;42.47;26.30;;;2.20;98.70;;;;;;5035170;28;20840;-73
2024/01/11 11:45:53;;;;;;;39.17;25.70;;;2.20;98.50;;;;;;5034667;28;20432;-72
2024/01/11 11:48:47;;;;;;;46.43;26.10;;;2.20;98.70;;;;;;5016980;28;20429;-72
2024/01/11 11:51:17;;;;;;;41.30;24.60;;;2.30;98.20;;;;;;5027221;28;20457;-72
2024/01/11 11:53:44;;;;;;;44.53;27.30;;;2.30;98.20;;;;;;5034302;28;20436;-73
2024/01/11 11:56:10;;;;;;;37.67;26.47;;;2.40;98.30;;;;;;5016799;28;20492;-72
2024/01/11 11:58:37;;;;;;;41.13;26.50;;;2.90;98.70;;;;;;5034717;28;20551;-71
2024/01/11 12:01:06;;;;;;;36.43;25.07;;;3.70;97.50;;;;;;5017056;28;20429;-72
2024/01/11 12:03:40;;;;;;;40.20;24.97;;;5.30;97.20;;;;;;5034801;28;20862;-72
2024/01/11 12:06:08;;;;;;;37.50;25.43;;;8.00;93.10;;;;;;5016604;28;20545;-73
2024/01/11 12:08:35;;;;;;;34.20;26.70;;;10.80;81.10;;;;;;5034234;28;21104;-71
2024/01/11 12:11:01;;;;;;;34.00;27.47;;;13.00;69.40;;;;;;5034267;28;20428;-72
2024/01/11 12:13:27;;;;;;;38.27;26.07;;;14.80;58.60;;;;;;5034511;28;20421;-73
2024/01/11 12:15:53;;;;;;;39.00;27.47;;;16.00;53.10;;;;;;5033436;28;20970;-72
2024/01/11 12:18:19;;;;;;;38.40;27.67;;;16.90;49.10;;;;;;5034334;28;20439;-74
2024/01/11 12:20:45;;;;;;;35.83;28.53;;;17.50;47.10;;;;;;5034111;28;20185;-71
2024/01/11 12:23:13;;;;;;;36.07;28.47;;;18.10;44.80;;;;;;5016792;28;20554;-71
2024/01/11 12:25:43;;;;;;;35.57;27.60;;;18.50;42.30;;;;;;5033246;28;21014;-70